Time;durP1;ratioP1;P1;durP2;ratioP2;P2;SDS_P1;SDS_P2;PMS_P1;PMS_P2;Temp;Humidity;BMP_temperature;BMP_pressure;BME280_temperature;BME280_humidity;BME280_pressure;Samples;Min_cycle;Max_cycle;Signal;HPM_P1;HPM_P2
2023/04/03 00:01:18;;;;;;;5.57;1.35;;;;;;;2.58;100.00;99570.75;5011038;28;20030;-73
2023/04/03 00:03:43;;;;;;;2.70;1.58;;;;;;;2.63;100.00;99575.72;5020048;28;20051;-73
2023/04/03 00:06:11;;;;;;;3.55;1.65;;;;;;;2.60;100.00;99574.16;5015772;28;20022;-73
2023/04/03 00:08:37;;;;;;;6.35;1.67;;;;;;;2.51;100.00;99553.56;5013290;28;20030;-73
2023/04/03 00:11:03;;;;;;;2.30;1.30;;;;;;;2.72;100.00;99571.38;4984063;28;20033;-73
2023/04/03 00:13:29;;;;;;;3.67;1.60;;;;;;;2.73;100.00;99570.44;5009875;28;20034;-73
2023/04/03 00:15:54;;;;;;;3.10;1.50;;;;;;;2.60;100.00;99554.63;5014341;28;20519;-73
2023/04/03 00:18:21;;;;;;;3.28;1.80;;;;;;;2.57;100.00;99552.22;5003749;28;20116;-73
2023/04/03 00:20:47;;;;;;;6.97;1.98;;;;;;;2.66;100.00;99571.94;5014678;28;20077;-73
2023/04/03 00:23:12;;;;;;;5.50;1.60;;;;;;;2.55;100.00;99560.34;5014635;28;20025;-73
2023/04/03 00:25:37;;;;;;;2.42;1.60;;;;;;;2.55;100.00;99575.53;5014959;28;20538;-73
2023/04/03 00:28:04;;;;;;;3.92;1.58;;;;;;;2.55;100.00;99578.22;5005124;28;20030;-74
2023/04/03 00:30:30;;;;;;;4.47;1.52;;;;;;;2.54;100.00;99569.34;5015031;28;20108;-73
2023/04/03 00:32:55;;;;;;;2.95;1.40;;;;;;;2.44;100.00;99573.81;4996497;28;20569;-73
2023/04/03 00:35:22;;;;;;;3.35;1.70;;;;;;;2.33;100.00;99561.38;4996181;28;20034;-73
2023/04/03 00:37:47;;;;;;;3.58;1.75;;;;;;;2.40;100.00;99577.69;5019139;28;20467;-73
2023/04/03 00:40:15;;;;;;;3.92;1.60;;;;;;;2.44;100.00;99579.16;5013543;28;20030;-73
2023/04/03 00:42:42;;;;;;;3.53;1.80;;;;;;;2.41;100.00;99579.38;5007817;28;20022;-73
2023/04/03 00:45:10;;;;;;;3.50;1.48;;;;;;;2.34;100.00;99578.25;4996459;28;20018;-73
2023/04/03 00:47:36;;;;;;;2.63;1.33;;;;;;;2.30;100.00;99582.97;5003765;28;20481;-73
2023/04/03 00:50:02;;;;;;;7.15;1.98;;;;;;;2.11;100.00;99567.69;4988047;28;20064;-73
2023/04/03 00:52:30;;;;;;;5.22;1.77;;;;;;;2.02;100.00;99562.28;5021219;28;20104;-73
2023/04/03 00:55:00;;;;;;;2.97;1.60;;;;;;;1.99;100.00;99568.72;5014287;28;20018;-73
2023/04/03 00:57:27;;;;;;;2.95;1.50;;;;;;;1.95;100.00;99569.97;5013932;28;20026;-73
2023/04/03 00:59:57;;;;;;;3.67;1.40;;;;;;;2.00;100.00;99582.94;5007467;28;20568;-73
2023/04/03 01:02:23;;;;;;;2.55;1.42;;;;;;;1.98;100.00;99573.22;5007256;28;20033;-73
2023/04/03 01:04:48;;;;;;;2.67;1.50;;;;;;;1.85;100.00;99572.56;5011318;28;20021;-72
2023/04/03 01:07:21;;;;;;;7.00;1.90;;;;;;;1.90;100.00;99583.69;4996572;28;20113;-73
2023/04/03 01:09:51;;;;;;;3.85;1.73;;;;;;;1.88;100.00;99584.81;5007213;28;20427;-71
2023/04/03 01:12:25;;;;;;;5.45;1.40;;;;;;;1.82;100.00;99578.16;5009725;28;20026;-71
2023/04/03 01:14:53;;;;;;;3.08;1.75;;;;;;;1.78;100.00;99576.72;4996587;28;20052;-71
2023/04/03 01:17:30;;;;;;;2.13;1.55;;;;;;;1.70;100.00;99577.38;5021876;28;20025;-71
2023/04/03 01:20:27;;;;;;;3.83;1.70;;;;;;;1.69;100.00;99569.50;4994385;28;20030;-71
2023/04/03 01:23:08;;;;;;;3.28;1.60;;;;;;;1.69;100.00;99585.50;4976406;28;20079;-71
2023/04/03 01:25:37;;;;;;;3.35;1.63;;;;;;;1.69;100.00;99580.16;4996271;28;20017;-71
2023/04/03 01:28:04;;;;;;;5.90;1.40;;;;;;;1.60;100.00;99567.56;4991903;28;20060;-71
2023/04/03 01:31:17;;;;;;;3.10;1.50;;;;;;;1.67;100.00;99574.94;5009058;28;20036;-71
2023/04/03 01:33:43;;;;;;;2.83;1.60;;;;;;;1.54;100.00;99566.28;5008723;28;20037;-71
2023/04/03 01:36:13;;;;;;;3.92;1.70;;;;;;;1.52;100.00;99574.41;5013472;28;20095;-71
2023/04/03 01:38:38;;;;;;;2.25;1.65;;;;;;;1.52;100.00;99581.56;4995206;28;20450;-71
2023/04/03 01:41:03;;;;;;;2.75;1.70;;;;;;;1.48;100.00;99580.13;4990886;28;20112;-71
2023/04/03 01:43:29;;;;;;;6.63;2.05;;;;;;;1.56;100.00;99598.16;5013264;28;20036;-71
2023/04/03 01:45:54;;;;;;;6.00;1.63;;;;;;;1.56;100.00;99587.50;5013470;28;20033;-71
2023/04/03 01:48:20;;;;;;;3.15;1.75;;;;;;;1.70;100.00;99595.19;5011496;28;20427;-71
2023/04/03 01:50:45;;;;;;;3.70;1.85;;;;;;;1.80;100.00;99600.59;5008441;28;20025;-71
2023/04/03 01:53:11;;;;;;;2.47;1.60;;;;;;;1.91;100.00;99608.56;4995316;28;20402;-72
2023/04/03 01:55:37;;;;;;;4.78;1.98;;;;;;;1.77;100.00;99596.38;4984445;28;20026;-73
2023/04/03 01:58:02;;;;;;;4.55;1.98;;;;;;;1.94;100.00;99601.16;5002835;28;20064;-73
2023/04/03 02:00:27;;;;;;;4.78;1.67;;;;;;;2.05;100.00;99610.94;5014059;28;20116;-73
2023/04/03 02:02:53;;;;;;;2.75;1.23;;;;;;;2.11;100.00;99606.88;5019017;28;20037;-73
2023/04/03 02:05:18;;;;;;;3.08;1.65;;;;;;;2.16;100.00;99599.34;5022189;28;20021;-73
2023/04/03 02:07:43;;;;;;;2.03;1.40;;;;;;;2.15;100.00;99595.84;5016422;28;20036;-73
2023/04/03 02:10:09;;;;;;;3.42;1.60;;;;;;;2.28;100.00;99605.44;4996586;28;20030;-73
2023/04/03 02:12:35;;;;;;;2.65;1.58;;;;;;;2.25;100.00;99589.69;4998514;28;20113;-73
2023/04/03 02:15:00;;;;;;;2.88;1.55;;;;;;;2.29;100.00;99591.13;4993725;28;20057;-73
2023/04/03 02:17:26;;;;;;;3.58;1.60;;;;;;;2.32;100.00;99596.22;5000157;28;20022;-73
2023/04/03 02:19:51;;;;;;;3.88;1.65;;;;;;;2.25;100.00;99582.53;5000252;28;20029;-73
2023/04/03 02:22:17;;;;;;;1.95;1.42;;;;;;;2.43;100.00;99598.81;5019002;28;20022;-73
2023/04/03 02:24:42;;;;;;;5.20;1.90;;;;;;;2.37;100.00;99605.50;5007622;28;20022;-73
2023/04/03 02:27:08;;;;;;;4.13;1.65;;;;;;;2.27;100.00;99585.06;5008536;28;20026;-73
2023/04/03 02:29:33;;;;;;;4.30;1.90;;;;;;;2.40;100.00;99605.25;5020178;28;20084;-73
2023/04/03 02:31:58;;;;;;;3.13;1.90;;;;;;;2.33;100.00;99592.56;5001580;28;20635;-73
2023/04/03 02:34:24;;;;;;;5.22;1.95;;;;;;;2.40;100.00;99599.91;5000389;28;20029;-73
2023/04/03 02:36:49;;;;;;;2.25;1.42;;;;;;;2.45;100.00;99598.69;4996718;28;20064;-73
2023/04/03 02:39:15;;;;;;;4.18;1.90;;;;;;;2.47;100.00;99615.44;5018610;28;20119;-73
2023/04/03 02:41:40;;;;;;;3.03;1.80;;;;;;;2.44;100.00;99604.97;5019291;28;20030;-74
2023/04/03 02:44:08;;;;;;;2.30;1.55;;;;;;;2.39;100.00;99600.91;5019941;28;20017;-74
2023/04/03 02:46:34;;;;;;;3.88;1.88;;;;;;;2.38;100.00;99591.22;5013152;28;20101;-74
2023/04/03 02:48:59;;;;;;;2.63;1.55;;;;;;;2.51;100.00;99614.16;5015505;28;20064;-74
2023/04/03 02:51:24;;;;;;;4.60;1.70;;;;;;;2.44;100.00;99604.97;5012150;28;20545;-74
2023/04/03 02:53:50;;;;;;;2.53;1.52;;;;;;;2.42;100.00;99608.63;5001742;28;20029;-74
2023/04/03 02:56:17;;;;;;;3.40;1.60;;;;;;;2.59;100.00;99617.88;4992121;28;20030;-74
2023/04/03 02:58:43;;;;;;;3.35;1.92;;;;;;;2.57;100.00;99606.50;5027937;28;20025;-74
2023/04/03 03:01:09;;;;;;;3.33;1.60;;;;;;;2.58;100.00;99612.66;5015831;28;20391;-74
2023/04/03 03:03:34;;;;;;;2.75;1.50;;;;;;;2.60;100.00;99608.03;5019361;28;20026;-74
2023/04/03 03:06:04;;;;;;;2.50;1.27;;;;;;;2.46;100.00;99595.84;5018232;28;20057;-74
2023/04/03 03:08:29;;;;;;;5.38;2.22;;;;;;;2.47;100.00;99604.75;5022323;28;20022;-74
2023/04/03 03:10:55;;;;;;;2.42;1.60;;;;;;;2.54;100.00;99605.88;5017855;28;20041;-74
2023/04/03 03:13:20;;;;;;;3.63;1.90;;;;;;;2.52;100.00;99602.53;5015372;28;20026;-74
2023/04/03 03:15:45;;;;;;;3.05;1.80;;;;;;;2.42;100.00;99592.63;4997456;28;20024;-74
2023/04/03 03:18:10;;;;;;;3.20;1.50;;;;;;;2.38;100.00;99580.53;5015901;28;20029;-74
2023/04/03 03:20:36;;;;;;;1.92;1.30;;;;;;;2.46;100.00;99606.53;5015420;28;20469;-74
2023/04/03 03:23:01;;;;;;;4.35;1.42;;;;;;;2.40;100.00;99594.56;4998428;28;20124;-74
2023/04/03 03:25:26;;;;;;;3.67;1.45;;;;;;;2.48;100.00;99593.06;4999047;28;20387;-73
2023/04/03 03:27:51;;;;;;;4.75;1.50;;;;;;;2.49;100.00;99592.06;5000538;28;20080;-74
2023/04/03 03:30:17;;;;;;;5.40;1.55;;;;;;;2.55;100.00;99599.59;4999249;28;20109;-74
2023/04/03 03:32:42;;;;;;;5.45;1.50;;;;;;;2.43;100.00;99580.09;5000706;28;20025;-74
2023/04/03 03:35:08;;;;;;;2.95;1.52;;;;;;;2.42;100.00;99578.41;4995768;28;20035;-76
2023/04/03 03:37:33;;;;;;;3.30;1.45;;;;;;;2.49;100.00;99589.41;5011267;28;20109;-78
2023/04/03 03:39:59;;;;;;;2.80;1.88;;;;;;;2.45;100.00;99577.31;5001328;28;20033;-75
2023/04/03 03:42:28;;;;;;;4.88;1.50;;;;;;;2.57;100.00;99600.31;5018804;23;20040;-56
2023/04/03 03:44:53;;;;;;;;;;;;;;;2.42;100.00;99589.94;5018412;28;20500;-56
2023/04/03 03:47:19;;;;;;;4.88;1.45;;;;;;;2.34;100.00;99595.09;5024126;28;19914;-56
2023/04/03 03:49:44;;;;;;;6.82;1.60;;;;;;;2.23;100.00;99589.84;5010889;28;20029;-56
2023/04/03 03:52:11;;;;;;;3.78;1.55;;;;;;;2.21;100.00;99591.78;5015521;28;20029;-56
2023/04/03 03:54:37;;;;;;;1.95;1.45;;;;;;;2.13;100.00;99595.09;5013989;28;20440;-56
2023/04/03 03:57:04;;;;;;;4.25;1.58;;;;;;;2.16;100.00;99599.34;5010918;28;20025;-56
2023/04/03 03:59:29;;;;;;;2.70;1.65;;;;;;;2.14;100.00;99599.47;5006328;28;20033;-57
2023/04/03 04:01:56;;;;;;;2.75;1.30;;;;;;;2.09;100.00;99592.81;5004319;28;20037;-56
2023/04/03 04:04:21;;;;;;;2.33;1.48;;;;;;;2.09;100.00;99600.81;5028578;28;20147;-56
2023/04/03 04:06:47;;;;;;;5.72;1.90;;;;;;;2.12;100.00;99596.09;5014884;28;20033;-56
2023/04/03 04:09:12;;;;;;;3.05;1.60;;;;;;;2.11;100.00;99598.88;5013554;28;20026;-55
2023/04/03 04:11:39;;;;;;;2.70;1.60;;;;;;;2.17;100.00;99595.69;5011977;28;20069;-55
2023/04/03 04:14:05;;;;;;;3.40;1.40;;;;;;;2.16;100.00;99602.00;5007472;28;20032;-56
2023/04/03 04:16:30;;;;;;;3.05;1.52;;;;;;;2.12;100.00;99606.78;5005660;28;20032;-55
2023/04/03 04:18:56;;;;;;;3.42;1.60;;;;;;;2.14;100.00;99601.28;5012941;28;20029;-56
2023/04/03 04:21:21;;;;;;;4.38;1.73;;;;;;;2.09;100.00;99598.16;5012517;28;20029;-56
2023/04/03 04:23:47;;;;;;;4.25;2.03;;;;;;;2.05;100.00;99610.94;5017022;28;20025;-56
2023/04/03 04:26:12;;;;;;;3.17;1.92;;;;;;;2.02;100.00;99607.66;5007453;28;20065;-56
2023/04/03 04:28:37;;;;;;;2.50;1.90;;;;;;;2.00;100.00;99612.28;5013398;28;20083;-56
2023/04/03 04:31:03;;;;;;;4.35;2.22;;;;;;;2.02;100.00;99618.31;5000117;28;20040;-56
2023/04/03 04:33:28;;;;;;;2.97;1.67;;;;;;;2.05;100.00;99620.75;5016371;28;20106;-55
2023/04/03 04:35:55;;;;;;;2.50;1.50;;;;;;;2.12;100.00;99612.13;5009873;28;20099;-56
2023/04/03 04:38:20;;;;;;;3.47;1.90;;;;;;;2.12;100.00;99613.91;5016427;28;20037;-56
2023/04/03 04:40:47;;;;;;;2.13;1.30;;;;;;;2.11;100.00;99614.91;5012948;28;20029;-56
2023/04/03 04:43:14;;;;;;;3.03;1.80;;;;;;;2.06;100.00;99614.44;5014074;28;20041;-56
2023/04/03 04:45:40;;;;;;;3.58;1.63;;;;;;;2.00;100.00;99606.97;5008106;28;20017;-56
2023/04/03 04:48:05;;;;;;;3.65;1.40;;;;;;;1.94;100.00;99614.50;5010125;28;20041;-56
2023/04/03 04:50:31;;;;;;;5.60;1.83;;;;;;;1.97;100.00;99619.56;5008263;28;20041;-56
2023/04/03 04:52:56;;;;;;;5.03;1.70;;;;;;;1.94;100.00;99619.84;5017710;28;20107;-55
2023/04/03 04:55:21;;;;;;;7.63;1.70;;;;;;;1.92;100.00;99615.59;5012639;28;20022;-56
2023/04/03 04:57:47;;;;;;;3.85;1.70;;;;;;;1.91;100.00;99611.22;5016937;28;20078;-56
2023/04/03 05:00:13;;;;;;;4.05;1.80;;;;;;;1.86;100.00;99616.97;5017676;28;20069;-60
2023/04/03 05:02:38;;;;;;;5.78;1.95;;;;;;;1.90;100.00;99618.38;5007162;28;20126;-56
2023/04/03 05:05:05;;;;;;;6.38;2.00;;;;;;;1.93;100.00;99625.28;5015302;28;20402;-55
2023/04/03 05:07:30;;;;;;;3.70;1.80;;;;;;;1.97;100.00;99624.06;4997145;28;20033;-56
2023/04/03 05:09:56;;;;;;;3.05;1.83;;;;;;;1.99;100.00;99622.09;5002183;28;20022;-56
2023/04/03 05:12:21;;;;;;;3.10;1.95;;;;;;;2.02;100.00;99626.34;5007556;28;20029;-56
2023/04/03 05:14:47;;;;;;;4.38;2.30;;;;;;;2.01;100.00;99630.00;5014567;28;20037;-58
2023/04/03 05:17:12;;;;;;;3.80;2.38;;;;;;;2.03;100.00;99628.88;5016365;28;20036;-55
2023/04/03 05:19:44;;;;;;;4.18;2.40;;;;;;;2.06;100.00;99623.28;5014560;28;20036;-55
2023/04/03 05:22:09;;;;;;;6.72;1.80;;;;;;;2.12;100.00;99627.25;5003244;28;20022;-56
2023/04/03 05:24:35;;;;;;;2.75;1.70;;;;;;;2.14;100.00;99630.66;5008575;28;20144;-56
2023/04/03 05:27:00;;;;;;;3.95;1.95;;;;;;;2.15;100.00;99638.53;5007533;28;20021;-56
2023/04/03 05:29:26;;;;;;;4.30;1.70;;;;;;;2.15;100.00;99630.53;5006445;28;20032;-56
2023/04/03 05:31:51;;;;;;;2.95;1.42;;;;;;;2.21;100.00;99639.84;5011316;28;20033;-56
2023/04/03 05:34:17;;;;;;;2.10;1.50;;;;;;;2.25;100.00;99632.41;5017589;28;20021;-56
2023/04/03 05:36:42;;;;;;;3.50;1.90;;;;;;;2.38;100.00;99639.28;5018015;28;20530;-57
2023/04/03 05:39:08;;;;;;;4.80;1.70;;;;;;;2.46;100.00;99638.59;5029640;28;20032;-55
2023/04/03 05:41:37;;;;;;;3.20;2.10;;;;;;;2.54;100.00;99633.47;5013763;28;20116;-55
2023/04/03 05:44:03;;;;;;;3.95;1.70;;;;;;;2.75;100.00;99635.25;5029957;28;20116;-56
2023/04/03 05:46:28;;;;;;;6.47;1.70;;;;;;;2.83;100.00;99632.78;5006614;28;20116;-55
2023/04/03 05:48:54;;;;;;;6.90;1.85;;;;;;;2.89;100.00;99626.03;5014218;28;20026;-58
2023/04/03 05:51:34;;;;;;;4.82;1.83;;;;;;;3.04;100.00;99635.41;5013458;28;20466;-56
2023/04/03 05:54:15;;;;;;;7.32;1.75;;;;;;;3.20;100.00;99649.09;5014934;28;20543;-56
2023/04/03 05:56:41;;;;;;;4.78;1.90;;;;;;;3.49;100.00;99640.31;5021702;28;20178;-55
2023/04/03 05:59:07;;;;;;;2.78;1.70;;;;;;;3.65;100.00;99640.63;5007165;28;20529;-56
2023/04/03 06:01:33;;;;;;;2.88;1.65;;;;;;;3.97;100.00;99644.03;5015509;28;20436;-56
2023/04/03 06:03:59;;;;;;;12.70;1.90;;;;;;;3.94;100.00;99645.16;5015611;28;20018;-55
2023/04/03 06:06:25;;;;;;;3.20;1.73;;;;;;;3.95;100.00;99647.69;5002426;28;20144;-62
2023/04/03 06:08:50;;;;;;;3.22;1.55;;;;;;;4.03;100.00;99652.34;5031388;28;20496;-62
2023/04/03 06:11:16;;;;;;;3.70;2.00;;;;;;;4.25;100.00;99653.06;5011453;28;20018;-62
2023/04/03 06:13:42;;;;;;;6.32;2.00;;;;;;;4.17;100.00;99651.94;5013366;28;20040;-62
2023/04/03 06:16:11;;;;;;;4.13;1.75;;;;;;;4.14;100.00;99654.06;5013194;28;20048;-62
2023/04/03 06:18:37;;;;;;;4.75;1.70;;;;;;;4.31;100.00;99649.81;5010080;28;20095;-62
2023/04/03 06:21:04;;;;;;;6.85;1.77;;;;;;;4.45;100.00;99654.69;5015190;28;20026;-62
2023/04/03 06:23:30;;;;;;;3.65;1.60;;;;;;;4.50;100.00;99657.81;5027430;28;20416;-62
2023/04/03 06:25:55;;;;;;;2.92;1.75;;;;;;;4.89;100.00;99654.19;5003966;28;20030;-62
2023/04/03 06:28:21;;;;;;;5.07;1.75;;;;;;;5.11;100.00;99655.66;5014163;28;20108;-62
2023/04/03 06:30:46;;;;;;;6.72;1.90;;;;;;;5.81;100.00;99656.84;5005913;28;20075;-62
2023/04/03 06:33:11;;;;;;;2.60;1.77;;;;;;;5.70;100.00;99663.25;5011306;28;20112;-62
2023/04/03 06:35:38;;;;;;;4.20;1.65;;;;;;;6.16;100.00;99657.91;5012191;28;20030;-62
2023/04/03 06:38:09;;;;;;;5.78;1.52;;;;;;;8.30;100.00;99660.59;5009277;28;20557;-62
2023/04/03 06:40:34;;;;;;;4.35;1.80;;;;;;;8.64;100.00;99651.53;5002785;28;20124;-63
2023/04/03 06:43:00;;;;;;;3.80;1.58;;;;;;;9.57;93.14;99664.47;4999100;28;20039;-62
2023/04/03 06:45:25;;;;;;;2.25;1.42;;;;;;;8.83;93.39;99656.59;5007769;28;20033;-63
2023/04/03 06:47:51;;;;;;;5.80;1.90;;;;;;;8.22;100.00;99666.00;5009471;28;20033;-62
2023/04/03 06:50:19;;;;;;;10.60;1.60;;;;;;;7.74;100.00;99670.28;5018756;28;20013;-65
2023/04/03 06:52:45;;;;;;;1.77;1.30;;;;;;;8.68;100.00;99664.50;5018140;28;20095;-62
2023/04/03 06:55:11;;;;;;;3.15;1.63;;;;;;;9.61;87.70;99654.97;5015705;28;20072;-62
2023/04/03 06:57:37;;;;;;;3.97;1.30;;;;;;;9.76;77.67;99665.88;5031883;28;20021;-62
2023/04/03 07:00:04;;;;;;;3.10;1.77;;;;;;;10.87;73.94;99661.84;5018559;28;20022;-63
2023/04/03 07:02:29;;;;;;;2.60;1.70;;;;;;;9.91;72.14;99664.09;5012658;28;20021;-62
2023/04/03 07:04:55;;;;;;;3.13;1.80;;;;;;;10.08;77.41;99672.94;5014157;28;20040;-62
2023/04/03 07:07:20;;;;;;;2.40;1.40;;;;;;;12.25;70.28;99662.03;5003597;28;20032;-62
2023/04/03 07:10:17;;;;;;;6.70;1.40;;;;;;;15.61;57.50;99664.69;5017532;28;20373;-62
2023/04/03 07:12:57;;;;;;;4.50;1.90;;;;;;;14.05;56.50;99667.84;5017778;28;20022;-63
2023/04/03 07:15:40;;;;;;;4.40;2.00;;;;;;;15.01;53.95;99679.31;5013691;28;20033;-62
2023/04/03 07:18:05;;;;;;;3.70;1.45;;;;;;;15.43;52.12;99668.97;5020888;23;20058;-56
2023/04/03 07:20:31;;;;;;;2.40;1.33;;;;;;;12.44;55.35;99681.41;4988601;28;20124;-62
2023/04/03 07:23:10;;;;;;;4.32;1.63;;;;;;;10.78;60.92;99692.75;4981026;28;21997;-63
2023/04/03 07:25:36;;;;;;;5.82;1.48;;;;;;;11.11;63.36;99690.59;4970830;28;20042;-63
2023/04/03 07:28:03;;;;;;;3.72;1.60;;;;;;;12.17;61.83;99694.69;4993063;28;20030;-62
2023/04/03 07:30:29;;;;;;;2.70;1.70;;;;;;;14.53;55.22;99684.09;4987139;28;20081;-62
2023/04/03 07:32:55;;;;;;;3.38;1.50;;;;;;;15.44;53.18;99689.72;4995800;28;20045;-62
2023/04/03 07:35:20;;;;;;;2.83;1.75;;;;;;;16.39;49.82;99689.13;4987528;28;20014;-62
2023/04/03 07:37:46;;;;;;;4.15;1.88;;;;;;;13.75;52.32;99690.75;5006495;28;20030;-62
2023/04/03 07:40:11;;;;;;;4.65;1.67;;;;;;;11.39;58.08;99707.03;4990457;28;20104;-62
2023/04/03 07:42:37;;;;;;;4.10;1.70;;;;;;;10.72;62.99;99719.53;4976194;28;20051;-62
2023/04/03 07:45:03;;;;;;;3.30;1.75;;;;;;;9.65;68.21;99710.34;4988578;28;20125;-56
2023/04/03 07:47:29;;;;;;;4.35;1.70;;;;;;;8.94;75.05;99707.50;4969973;28;20042;-56
2023/04/03 07:49:54;;;;;;;5.20;1.92;;;;;;;8.21;86.49;99715.53;4973336;28;20034;-55
2023/04/03 07:52:19;;;;;;;4.13;1.90;;;;;;;7.51;100.00;99718.50;4969512;28;20030;-55
2023/04/03 07:54:45;;;;;;;3.40;1.85;;;;;;;7.45;100.00;99715.44;4973509;28;20450;-61
2023/04/03 07:57:11;;;;;;;3.60;1.75;;;;;;;7.56;100.00;99717.00;4973512;28;20026;-62
2023/04/03 07:59:45;;;;;;;4.10;1.77;;;;;;;7.08;100.00;99718.44;4987238;28;20035;-55
2023/04/03 08:02:13;;;;;;;7.80;1.95;;;;;;;7.09;100.00;99714.72;4970519;28;20049;-56
2023/04/03 08:04:45;;;;;;;3.40;1.50;;;;;;;7.27;100.00;99706.59;4967628;28;20521;-56
2023/04/03 08:07:10;;;;;;;6.47;2.00;;;;;;;7.37;100.00;99723.47;4990821;28;20105;-55
2023/04/03 08:09:36;;;;;;;4.50;1.75;;;;;;;7.41;100.00;99697.94;5014843;23;20061;-71
2023/04/03 08:12:01;;;;;;;4.75;1.50;;;;;;;7.80;100.00;99734.25;5039739;28;20108;-71
2023/04/03 08:14:26;;;;;;;3.00;1.33;;;;;;;8.04;100.00;99699.34;5041216;28;20047;-71
2023/04/03 08:16:52;;;;;;;3.28;1.58;;;;;;;8.50;94.43;99720.50;5037967;28;20041;-71
2023/04/03 08:19:17;;;;;;;3.88;1.40;;;;;;;8.56;86.25;99726.03;5017134;28;20501;-71
2023/04/03 08:21:43;;;;;;;6.30;1.80;;;;;;;8.35;87.90;99702.22;5014406;28;20026;-71
2023/04/03 08:24:09;;;;;;;4.53;1.58;;;;;;;8.49;94.31;99719.66;5015572;28;20017;-71
2023/04/03 08:26:34;;;;;;;4.63;1.52;;;;;;;8.98;89.47;99727.72;5034697;28;20434;-71
2023/04/03 08:29:00;;;;;;;7.03;1.83;;;;;;;9.49;84.05;99713.94;5016798;28;20026;-72
2023/04/03 08:31:25;;;;;;;8.00;1.67;;;;;;;9.62;79.55;99687.22;5033778;28;20432;-73
2023/04/03 08:33:50;;;;;;;3.28;1.75;;;;;;;9.54;78.89;99698.06;5031658;28;20030;-72
2023/04/03 08:36:27;;;;;;;6.18;1.50;;;;;;;8.95;81.98;99724.53;5034303;28;20029;-72
2023/04/03 08:38:54;;;;;;;3.92;1.38;;;;;;;9.01;76.55;99702.25;5032356;28;20120;-71
2023/04/03 08:41:33;;;;;;;3.80;1.48;;;;;;;9.55;73.75;99724.06;5065182;22;20421;-72
2023/04/03 08:44:03;;;;;;;2.58;1.45;;;;;;;9.97;74.83;99719.31;5046993;28;20036;-72
2023/04/03 08:46:52;;;;;;;4.53;1.58;;;;;;;10.10;71.23;99703.34;5037860;28;20143;-72
2023/04/03 08:49:31;;;;;;;4.65;1.65;;;;;;;11.00;66.90;99718.91;5028057;28;20574;-72
2023/04/03 08:52:00;;;;;;;5.15;1.77;;;;;;;10.85;66.31;99715.38;5039082;28;20381;-72
2023/04/03 08:54:48;;;;;;;3.28;1.40;;;;;;;10.02;69.23;99719.63;5046181;28;20100;-72
2023/04/03 08:57:13;;;;;;;4.53;1.55;;;;;;;10.17;70.44;99717.84;5009584;28;20037;-72
2023/04/03 08:59:40;;;;;;;7.10;1.73;;;;;;;11.31;65.44;99723.38;5029745;28;20102;-74
2023/04/03 09:02:22;;;;;;;3.80;1.40;;;;;;;10.53;62.66;99717.28;5025435;28;20041;-72
2023/04/03 09:04:47;;;;;;;4.35;1.42;;;;;;;10.57;63.48;99720.50;5033159;28;20021;-73
2023/04/03 09:07:21;;;;;;;3.00;1.52;;;;;;;10.18;64.37;99718.69;5032080;28;20029;-72
2023/04/03 09:09:49;;;;;;;4.63;1.70;;;;;;;11.14;63.77;99728.13;5035808;28;20467;-76
2023/04/03 09:12:21;;;;;;;5.95;1.70;;;;;;;11.19;64.00;99725.69;5031585;28;20033;-73
2023/04/03 09:15:14;;;;;;;5.22;1.75;;;;;;;11.38;60.53;99724.31;5033491;28;20090;-77
2023/04/03 09:18:02;;;;;;;3.55;1.50;;;;;;;12.79;57.52;99719.56;5035951;28;20021;-77
2023/04/03 09:20:50;;;;;;;3.78;1.65;;;;;;;14.08;55.56;99716.41;5019360;28;20021;-77
2023/04/03 09:23:24;;;;;;;2.40;1.30;;;;;;;14.43;50.24;99704.34;5035152;28;20052;-76
2023/04/03 09:25:53;;;;;;;3.40;1.20;;;;;;;13.47;50.55;99726.16;5034087;28;20021;-75
2023/04/03 09:28:18;;;;;;;4.53;2.25;;;;;;;12.63;54.67;99715.22;5044129;28;20414;-77
2023/04/03 09:30:43;;;;;;;4.53;2.03;;;;;;;12.73;53.22;99718.44;5022158;28;20033;-76
2023/04/03 09:33:10;;;;;;;4.00;1.55;;;;;;;12.98;52.52;99710.72;5019858;28;20040;-76
2023/04/03 09:35:37;;;;;;;5.50;1.50;;;;;;;13.49;55.79;99718.66;5039828;28;20035;-74
2023/04/03 09:38:11;;;;;;;6.45;1.77;;;;;;;13.29;59.14;99707.63;5034629;28;20021;-77
2023/04/03 09:40:48;;;;;;;4.97;1.60;;;;;;;13.19;59.59;99715.25;5039292;28;20033;-77
2023/04/03 09:43:52;;;;;;;3.90;1.40;;;;;;;15.21;57.27;99711.97;5029663;28;20079;-75
2023/04/03 09:46:21;;;;;;;5.47;2.08;;;;;;;13.57;53.69;99701.31;5012560;28;20043;-78
2023/04/03 09:48:54;;;;;;;6.03;1.60;;;;;;;14.10;52.07;99695.28;5035193;28;20021;-76
2023/04/03 09:51:26;;;;;;;6.63;1.80;;;;;;;14.42;50.38;99699.97;5031618;28;20486;-75
2023/04/03 09:53:51;;;;;;;5.95;1.55;;;;;;;14.14;52.55;99715.59;5012870;28;20036;-72
2023/04/03 09:56:16;;;;;;;4.82;1.52;;;;;;;13.75;55.82;99717.97;5036550;28;20030;-76
2023/04/03 09:58:45;;;;;;;4.47;2.10;;;;;;;13.77;54.35;99715.03;5031502;28;20451;-73
2023/04/03 10:01:37;;;;;;;3.22;1.50;;;;;;;13.91;51.33;99710.47;5028050;28;20954;-77
2023/04/03 10:04:06;;;;;;;3.47;1.60;;;;;;;12.99;51.49;99703.41;5035490;28;20036;-79
2023/04/03 10:06:35;;;;;;;4.18;1.25;;;;;;;12.10;50.09;99706.50;5018095;28;20545;-75
2023/04/03 10:09:13;;;;;;;1.92;1.30;;;;;;;11.24;50.24;99708.88;5024299;28;20025;-73
2023/04/03 10:12:04;;;;;;;3.75;1.02;;;;;;;10.58;52.55;99716.75;5033809;28;20064;-76
2023/04/03 10:14:31;;;;;;;4.03;1.67;;;;;;;10.39;55.95;99718.09;5020774;28;20057;-76
2023/04/03 10:17:09;;;;;;;7.10;2.33;;;;;;;9.65;61.88;99704.94;5013558;28;20076;-75
2023/04/03 10:20:02;;;;;;;7.35;2.05;;;;;;;9.45;64.05;99712.59;5033092;28;20026;-76
2023/04/03 10:22:41;;;;;;;3.58;1.40;;;;;;;10.16;70.01;99702.63;5027196;28;20133;-76
2023/04/03 10:25:23;;;;;;;4.97;1.60;;;;;;;9.55;70.72;99709.72;5020230;28;20021;-77
2023/04/03 10:27:57;;;;;;;6.00;1.73;;;;;;;9.04;71.95;99715.41;5019680;28;20033;-78
2023/04/03 10:30:46;;;;;;;5.25;1.95;;;;;;;8.94;72.53;99712.06;5017577;28;20517;-75
2023/04/03 10:33:22;;;;;;;3.08;1.42;;;;;;;8.76;82.76;99709.53;5010423;28;20085;-73
2023/04/03 10:36:09;;;;;;;3.35;1.58;;;;;;;10.39;71.25;99704.56;5029223;28;20033;-77
2023/04/03 10:39:04;;;;;;;3.75;1.30;;;;;;;13.25;58.61;99690.00;5016814;28;20026;-76
2023/04/03 10:41:45;;;;;;;5.15;1.40;;;;;;;11.34;61.64;99702.19;5006366;28;20080;-76
2023/04/03 10:44:29;;;;;;;2.65;1.23;;;;;;;10.24;66.63;99691.78;5029954;28;20021;-79
2023/04/03 10:47:13;;;;;;;3.90;1.60;;;;;;;9.28;74.79;99708.28;5014652;28;20048;-75
2023/04/03 10:49:59;;;;;;;5.95;1.50;;;;;;;8.81;75.79;99711.72;5014792;28;20029;-77
2023/04/03 10:52:40;;;;;;;2.35;1.10;;;;;;;8.49;70.51;99706.16;5001380;28;20065;-77
2023/04/03 10:55:24;;;;;;;2.90;1.40;;;;;;;9.02;74.73;99703.09;5018541;28;20022;-75
2023/04/03 10:57:50;;;;;;;2.47;1.13;;;;;;;8.95;78.12;99676.78;5033508;28;20036;-77
2023/04/03 11:00:24;;;;;;;6.07;1.63;;;;;;;8.86;81.17;99696.72;5026556;28;20018;-74
2023/04/03 11:02:57;;;;;;;5.40;1.50;;;;;;;8.49;85.62;99702.63;5029031;28;20036;-73
2023/04/03 11:05:47;;;;;;;2.55;1.15;;;;;;;8.54;85.06;99698.41;5019195;28;20543;-72
2023/04/03 11:08:26;;;;;;;4.82;1.83;;;;;;;8.34;93.71;99691.63;5001801;28;20029;-72
2023/04/03 11:10:59;;;;;;;3.63;1.40;;;;;;;8.48;84.93;99703.63;5010193;28;20092;-73
2023/04/03 11:13:49;;;;;;;2.22;1.30;;;;;;;8.30;81.79;99685.69;5019374;28;20439;-72
2023/04/03 11:16:24;;;;;;;6.85;1.50;;;;;;;8.35;76.52;99694.13;5028591;28;20080;-71
2023/04/03 11:18:57;;;;;;;4.25;1.63;;;;;;;8.28;66.98;99695.00;5022146;28;20080;-74
2023/04/03 11:21:30;;;;;;;3.65;1.33;;;;;;;8.31;65.54;99695.50;5032840;28;20029;-78
2023/04/03 11:24:20;;;;;;;3.00;1.00;;;;;;;8.27;62.46;99696.81;5043642;28;20107;-78
2023/04/03 11:26:49;;;;;;;4.68;1.23;;;;;;;7.74;61.99;99687.28;5045954;28;20041;-72
2023/04/03 11:29:58;;;;;;;6.93;1.52;;;;;;;8.10;62.74;99689.75;5033244;28;20018;-78
2023/04/03 11:33:17;;;;;;;4.50;1.15;;;;;;;7.80;63.09;99677.69;5033468;28;20033;-78
2023/04/03 11:35:45;;;;;;;3.17;1.20;;;;;;;7.89;64.74;99685.66;5047576;28;20082;-75
2023/04/03 11:38:20;;;;;;;2.58;0.98;;;;;;;7.93;64.67;99675.38;5037985;28;20022;-74
2023/04/03 11:40:47;;;;;;;5.13;2.92;;;;;;;8.16;62.63;99680.16;5037359;28;20022;-78
2023/04/03 11:43:26;;;;;;;3.78;1.33;;;;;;;8.50;61.84;99688.97;5033234;28;20025;-78
2023/04/03 11:46:07;;;;;;;3.45;1.05;;;;;;;9.36;61.26;99678.56;5027379;28;20076;-77